LOT2005 LSZH-EPWR
Flight info
| Callsign | LOT2005 |
|---|---|
| Flight time | 1h 15m |
| Altitude | 35000 |
| Route | DEGES Z2 XEBIX N871 BEPAS DCT IPDUL DCT LEGAZ DCT LAGAR T871 DINOV |
| Aircraft | B77W/H-SDE1E2E3FGHIJ2J3J4J5M1RWXY/LB1D1 |
Departure
| Time | 2026-04-26 13:36 |
|---|---|
| Airport | Zürich Airport (LSZH) |
Arrival
| Time | 2026-04-26 14:51 |
|---|---|
| Airport | Copernicus Wrocław Airport (EPWR) |
| Time | Latitude | Longitude | Altitude | Speed | Heading |
|---|---|---|---|---|---|
| 2026-04-26 13:02 | 47.46068 | 8.55238 | 1406 ft | 0 kts | 6° |
| 2026-04-26 13:17 | 47.46067 | 8.55238 | 1400 ft | 1 kts | 6° |
| 2026-04-26 13:17 | 47.46053 | 8.55236 | 1409 ft | 3 kts | 6° |
| 2026-04-26 13:18 | 47.46015 | 8.55228 | 1410 ft | 3 kts | 21° |
| 2026-04-26 13:18 | 47.46001 | 8.55218 | 1410 ft | 3 kts | 46° |
| 2026-04-26 13:18 | 47.45989 | 8.55175 | 1409 ft | 3 kts | 93° |
| 2026-04-26 13:19 | 47.45989 | 8.55158 | 1409 ft | 2 kts | 97° |
| 2026-04-26 13:19 | 47.45991 | 8.55138 | 1409 ft | 3 kts | 108° |
| 2026-04-26 13:23 | 47.45991 | 8.55140 | 1399 ft | 1 kts | 104° |
| 2026-04-26 13:24 | 47.45986 | 8.55202 | 1400 ft | 11 kts | 96° |
| 2026-04-26 13:24 | 47.45978 | 8.55315 | 1410 ft | 10 kts | 96° |
| 2026-04-26 13:24 | 47.45971 | 8.55417 | 1405 ft | 9 kts | 96° |
| 2026-04-26 13:24 | 47.45965 | 8.55504 | 1411 ft | 8 kts | 96° |
| 2026-04-26 13:25 | 47.45959 | 8.55585 | 1409 ft | 8 kts | 96° |
| 2026-04-26 13:25 | 47.45953 | 8.55662 | 1407 ft | 7 kts | 96° |
| 2026-04-26 13:25 | 47.45946 | 8.55764 | 1410 ft | 15 kts | 96° |
| 2026-04-26 13:25 | 47.45934 | 8.55932 | 1417 ft | 16 kts | 96° |
| 2026-04-26 13:26 | 47.45923 | 8.56087 | 1415 ft | 14 kts | 96° |
| 2026-04-26 13:26 | 47.45913 | 8.56228 | 1416 ft | 13 kts | 96° |
| 2026-04-26 13:26 | 47.45904 | 8.56354 | 1424 ft | 12 kts | 96° |
| 2026-04-26 13:26 | 47.45872 | 8.56448 | 1428 ft | 10 kts | 137° |
| 2026-04-26 13:27 | 47.45827 | 8.56512 | 1429 ft | 8 kts | 136° |
| 2026-04-26 13:27 | 47.45798 | 8.56581 | 1428 ft | 8 kts | 101° |
| 2026-04-26 13:27 | 47.45793 | 8.56656 | 1428 ft | 7 kts | 96° |
| 2026-04-26 13:27 | 47.45789 | 8.56719 | 1429 ft | 6 kts | 96° |
| 2026-04-26 13:28 | 47.45785 | 8.56768 | 1425 ft | 4 kts | 96° |
| 2026-04-26 13:28 | 47.45783 | 8.56798 | 1425 ft | 9 kts | 95° |
| 2026-04-26 13:28 | 47.45777 | 8.56884 | 1427 ft | 5 kts | 96° |
| 2026-04-26 13:28 | 47.45777 | 8.56889 | 1427 ft | 0 kts | 96° |
| 2026-04-26 13:33 | 47.45775 | 8.56906 | 1428 ft | 5 kts | 96° |
| 2026-04-26 13:33 | 47.45766 | 8.56986 | 1429 ft | 8 kts | 112° |
| 2026-04-26 13:33 | 47.45728 | 8.57033 | 1430 ft | 5 kts | 159° |
| 2026-04-26 13:34 | 47.45708 | 8.57033 | 1430 ft | 4 kts | 185° |
| 2026-04-26 13:34 | 47.45680 | 8.57030 | 1430 ft | 3 kts | 185° |
| 2026-04-26 13:34 | 47.45661 | 8.57014 | 1429 ft | 3 kts | 237° |
| 2026-04-26 13:34 | 47.45662 | 8.57003 | 1429 ft | 3 kts | 270° |
| 2026-04-26 13:35 | 47.45663 | 8.56994 | 1429 ft | 0 kts | 278° |
| 2026-04-26 13:35 | 47.45692 | 8.56593 | 1424 ft | 88 kts | 276° |
| 2026-04-26 13:35 | 47.45789 | 8.55229 | 1408 ft | 176 kts | 276° |
| 2026-04-26 13:35 | 47.45933 | 8.53169 | 1844 ft | 205 kts | 278° |
| 2026-04-26 13:36 | 47.46084 | 8.51081 | 2945 ft | 208 kts | 279° |
| 2026-04-26 13:36 | 47.46238 | 8.48955 | 3699 ft | 216 kts | 275° |
| 2026-04-26 13:36 | 47.45982 | 8.46650 | 3982 ft | 246 kts | 241° |
| 2026-04-26 13:36 | 47.44727 | 8.44886 | 4485 ft | 255 kts | 209° |
| 2026-04-26 13:37 | 47.43322 | 8.43234 | 4965 ft | 270 kts | 234° |
| 2026-04-26 13:37 | 47.42624 | 8.40672 | 5008 ft | 264 kts | 261° |
| 2026-04-26 13:37 | 47.42323 | 8.38051 | 5261 ft | 258 kts | 251° |
| 2026-04-26 13:37 | 47.41295 | 8.35884 | 5971 ft | 264 kts | 213° |
| 2026-04-26 13:38 | 47.39572 | 8.35020 | 6761 ft | 267 kts | 178° |
| 2026-04-26 13:38 | 47.37815 | 8.35764 | 7513 ft | 272 kts | 144° |
| 2026-04-26 13:38 | 47.36605 | 8.37900 | 8278 ft | 278 kts | 112° |
| 2026-04-26 13:38 | 47.36329 | 8.40735 | 9030 ft | 285 kts | 86° |
| 2026-04-26 13:39 | 47.36580 | 8.42743 | 9513 ft | 290 kts | 73° |
| 2026-04-26 13:39 | 47.37260 | 8.45570 | 10333 ft | 295 kts | 69° |
| 2026-04-26 13:39 | 47.38028 | 8.48454 | 10877 ft | 312 kts | 68° |
| 2026-04-26 13:39 | 47.38851 | 8.51526 | 11080 ft | 338 kts | 68° |
| 2026-04-26 13:40 | 47.39742 | 8.54882 | 11328 ft | 364 kts | 69° |
| 2026-04-26 13:40 | 47.40675 | 8.58458 | 11854 ft | 379 kts | 69° |
| 2026-04-26 13:40 | 47.41621 | 8.62135 | 12771 ft | 384 kts | 69° |
| 2026-04-26 13:40 | 47.42570 | 8.65858 | 13795 ft | 388 kts | 69° |
| 2026-04-26 13:41 | 47.43525 | 8.69620 | 14727 ft | 392 kts | 69° |
| 2026-04-26 13:41 | 47.44478 | 8.73377 | 15613 ft | 397 kts | 69° |
| 2026-04-26 13:41 | 47.45448 | 8.77225 | 16463 ft | 401 kts | 69° |
| 2026-04-26 13:41 | 47.46121 | 8.81288 | 17082 ft | 413 kts | 82° |
| 2026-04-26 13:42 | 47.46213 | 8.85585 | 17789 ft | 423 kts | 93° |
| 2026-04-26 13:42 | 47.45751 | 8.89911 | 18512 ft | 431 kts | 102° |
| 2026-04-26 13:42 | 47.45062 | 8.94264 | 19206 ft | 437 kts | 103° |
| 2026-04-26 13:42 | 47.44381 | 8.98612 | 19944 ft | 441 kts | 102° |
| 2026-04-26 13:43 | 47.43724 | 9.03054 | 20667 ft | 445 kts | 102° |
| 2026-04-26 13:43 | 47.43087 | 9.07561 | 21382 ft | 449 kts | 102° |
| 2026-04-26 13:43 | 47.42451 | 9.12106 | 22069 ft | 454 kts | 102° |
| 2026-04-26 13:43 | 47.41930 | 9.16726 | 22728 ft | 459 kts | 95° |
| 2026-04-26 13:44 | 47.41839 | 9.21484 | 23365 ft | 465 kts | 88° |
| 2026-04-26 13:44 | 47.42122 | 9.26208 | 23962 ft | 469 kts | 80° |
| 2026-04-26 13:44 | 47.42796 | 9.30946 | 24517 ft | 472 kts | 76° |
| 2026-04-26 13:44 | 47.43565 | 9.35689 | 25104 ft | 476 kts | 76° |
| 2026-04-26 13:45 | 47.44337 | 9.40452 | 25661 ft | 479 kts | 76° |
| 2026-04-26 13:45 | 47.45085 | 9.45240 | 26196 ft | 483 kts | 77° |
| 2026-04-26 13:45 | 47.45819 | 9.50104 | 26680 ft | 487 kts | 77° |
| 2026-04-26 13:45 | 47.46525 | 9.55017 | 27167 ft | 491 kts | 80° |
| 2026-04-26 13:46 | 47.46949 | 9.60042 | 27632 ft | 495 kts | 86° |
| 2026-04-26 13:46 | 47.47069 | 9.65147 | 28086 ft | 498 kts | 91° |
| 2026-04-26 13:46 | 47.46853 | 9.70273 | 28543 ft | 501 kts | 95° |
| 2026-04-26 13:46 | 47.46538 | 9.75410 | 28974 ft | 504 kts | 96° |
| 2026-04-26 13:47 | 47.46210 | 9.80545 | 29366 ft | 508 kts | 96° |
| 2026-04-26 13:47 | 47.45886 | 9.85766 | 29738 ft | 511 kts | 96° |
| 2026-04-26 13:47 | 47.45575 | 9.91020 | 30098 ft | 514 kts | 95° |
| 2026-04-26 13:47 | 47.45271 | 9.96292 | 30569 ft | 514 kts | 95° |
| 2026-04-26 13:48 | 47.44970 | 10.01581 | 31042 ft | 513 kts | 95° |
| 2026-04-26 13:48 | 47.44675 | 10.06774 | 31483 ft | 512 kts | 95° |
| 2026-04-26 13:48 | 47.44372 | 10.12015 | 31910 ft | 512 kts | 95° |
| 2026-04-26 13:48 | 47.44072 | 10.17003 | 32273 ft | 512 kts | 96° |
| 2026-04-26 13:49 | 47.43564 | 10.22207 | 32652 ft | 511 kts | 102° |
| 2026-04-26 13:49 | 47.42851 | 10.27346 | 33071 ft | 510 kts | 103° |
| 2026-04-26 13:49 | 47.42116 | 10.32454 | 33497 ft | 509 kts | 103° |
| 2026-04-26 13:49 | 47.41404 | 10.37578 | 33890 ft | 509 kts | 102° |
| 2026-04-26 13:50 | 47.40848 | 10.42695 | 34261 ft | 509 kts | 95° |
| 2026-04-26 13:50 | 47.40842 | 10.47924 | 34572 ft | 508 kts | 85° |
| 2026-04-26 13:50 | 47.41327 | 10.53077 | 34915 ft | 506 kts | 77° |
| 2026-04-26 13:50 | 47.42295 | 10.58073 | 35138 ft | 506 kts | 68° |
| 2026-04-26 13:51 | 47.43563 | 10.62929 | 35198 ft | 509 kts | 67° |
| 2026-04-26 13:51 | 47.46104 | 10.72601 | 35176 ft | 505 kts | 68° |
| 2026-04-26 13:52 | 47.48478 | 10.82329 | 35184 ft | 501 kts | 69° |
| 2026-04-26 13:52 | 47.50812 | 10.92056 | 35194 ft | 502 kts | 69° |
| 2026-04-26 13:53 | 47.53142 | 11.01750 | 35190 ft | 502 kts | 69° |
| 2026-04-26 13:53 | 47.55482 | 11.11523 | 35187 ft | 502 kts | 69° |
| 2026-04-26 13:54 | 47.57798 | 11.21300 | 35172 ft | 503 kts | 69° |
| 2026-04-26 13:54 | 47.60082 | 11.30987 | 35173 ft | 503 kts | 69° |
| 2026-04-26 13:55 | 47.63109 | 11.44062 | 35175 ft | 503 kts | 71° |
| 2026-04-26 13:56 | 47.66478 | 11.60603 | 35178 ft | 503 kts | 72° |
| 2026-04-26 13:56 | 47.68503 | 11.70529 | 35179 ft | 502 kts | 72° |
| 2026-04-26 13:57 | 47.70513 | 11.80463 | 35185 ft | 502 kts | 73° |
| 2026-04-26 13:57 | 47.72586 | 11.90329 | 35183 ft | 499 kts | 63° |
| 2026-04-26 13:57 | 47.74297 | 11.94779 | 35189 ft | 495 kts | 52° |
| 2026-04-26 13:58 | 47.76461 | 11.98742 | 35192 ft | 493 kts | 43° |
| 2026-04-26 13:58 | 47.81661 | 12.05225 | 35197 ft | 490 kts | 36° |
| 2026-04-26 13:59 | 47.87008 | 12.11597 | 35207 ft | 492 kts | 37° |
| 2026-04-26 13:59 | 47.92273 | 12.18075 | 35207 ft | 493 kts | 37° |
| 2026-04-26 14:00 | 48.02844 | 12.31172 | 35207 ft | 494 kts | 37° |
| 2026-04-26 14:01 | 48.08134 | 12.37746 | 35214 ft | 494 kts | 37° |
| 2026-04-26 14:01 | 48.13421 | 12.44340 | 35222 ft | 494 kts | 37° |
| 2026-04-26 14:02 | 48.18668 | 12.50910 | 35231 ft | 493 kts | 37° |
| 2026-04-26 14:02 | 48.23956 | 12.57488 | 35207 ft | 492 kts | 35° |
| 2026-04-26 14:03 | 48.29432 | 12.63620 | 35213 ft | 490 kts | 33° |
| 2026-04-26 14:03 | 48.34921 | 12.69644 | 35215 ft | 490 kts | 33° |
| 2026-04-26 14:04 | 48.40369 | 12.75857 | 35218 ft | 492 kts | 38° |
| 2026-04-26 14:04 | 48.45416 | 12.82837 | 35219 ft | 493 kts | 41° |
| 2026-04-26 14:05 | 48.50397 | 12.89905 | 35220 ft | 493 kts | 40° |
| 2026-04-26 14:05 | 48.55397 | 12.96940 | 35217 ft | 494 kts | 41° |
| 2026-04-26 14:06 | 48.60219 | 13.04389 | 35213 ft | 495 kts | 44° |
| 2026-04-26 14:06 | 48.64967 | 13.11945 | 35214 ft | 496 kts | 44° |
| 2026-04-26 14:07 | 48.69759 | 13.19483 | 35213 ft | 496 kts | 43° |
| 2026-04-26 14:07 | 48.74539 | 13.26961 | 35214 ft | 496 kts | 43° |
| 2026-04-26 14:08 | 48.79338 | 13.34490 | 35212 ft | 496 kts | 43° |
| 2026-04-26 14:08 | 48.84116 | 13.42014 | 35216 ft | 496 kts | 43° |
| 2026-04-26 14:09 | 48.89160 | 13.49108 | 35209 ft | 492 kts | 32° |
| 2026-04-26 14:09 | 48.95046 | 13.54274 | 35212 ft | 484 kts | 19° |
| 2026-04-26 14:10 | 49.01301 | 13.57928 | 35228 ft | 483 kts | 17° |
| 2026-04-26 14:10 | 49.07606 | 13.61516 | 35227 ft | 484 kts | 17° |
| 2026-04-26 14:11 | 49.17052 | 13.67060 | 35245 ft | 485 kts | 17° |
| 2026-04-26 14:11 | 49.23330 | 13.70794 | 35245 ft | 486 kts | 17° |
| 2026-04-26 14:12 | 49.29642 | 13.74553 | 35250 ft | 486 kts | 17° |
| 2026-04-26 14:12 | 49.35957 | 13.78321 | 35255 ft | 486 kts | 17° |
| 2026-04-26 14:13 | 49.45314 | 13.84330 | 35262 ft | 489 kts | 22° |
| 2026-04-26 14:14 | 49.51393 | 13.89046 | 35262 ft | 490 kts | 23° |
| 2026-04-26 14:14 | 49.57469 | 13.93828 | 35257 ft | 490 kts | 23° |
| 2026-04-26 14:15 | 49.63556 | 13.98583 | 35266 ft | 489 kts | 23° |
| 2026-04-26 14:15 | 49.69609 | 14.03294 | 35265 ft | 489 kts | 23° |
| 2026-04-26 14:16 | 49.75702 | 14.08043 | 35265 ft | 489 kts | 23° |
| 2026-04-26 14:16 | 49.81753 | 14.12774 | 35269 ft | 489 kts | 23° |
| 2026-04-26 14:17 | 49.87823 | 14.17534 | 35276 ft | 489 kts | 23° |
| 2026-04-26 14:17 | 49.93897 | 14.22313 | 35274 ft | 489 kts | 23° |
| 2026-04-26 14:18 | 49.99972 | 14.27106 | 35272 ft | 489 kts | 23° |
| 2026-04-26 14:18 | 50.06009 | 14.31882 | 35266 ft | 489 kts | 23° |
| 2026-04-26 14:19 | 50.12085 | 14.36703 | 35267 ft | 489 kts | 23° |
| 2026-04-26 14:19 | 50.18153 | 14.41531 | 35271 ft | 489 kts | 23° |
| 2026-04-26 14:20 | 50.24186 | 14.46346 | 35268 ft | 488 kts | 23° |
| 2026-04-26 14:20 | 50.30251 | 14.51199 | 35268 ft | 488 kts | 23° |
| 2026-04-26 14:21 | 50.36309 | 14.56062 | 35273 ft | 488 kts | 23° |
| 2026-04-26 14:21 | 50.42313 | 14.60894 | 35277 ft | 488 kts | 23° |
| 2026-04-26 14:22 | 50.48359 | 14.65775 | 35287 ft | 488 kts | 23° |
| 2026-04-26 14:22 | 50.54395 | 14.70662 | 35284 ft | 488 kts | 23° |
| 2026-04-26 14:23 | 50.59420 | 14.74740 | 35281 ft | 488 kts | 23° |
| 2026-04-26 14:23 | 50.65040 | 14.80776 | 35280 ft | 497 kts | 44° |
| 2026-04-26 14:23 | 50.67159 | 14.85112 | 35286 ft | 503 kts | 56° |
| 2026-04-26 14:24 | 50.68644 | 14.90079 | 35282 ft | 506 kts | 67° |
| 2026-04-26 14:24 | 50.71020 | 15.00571 | 35282 ft | 509 kts | 68° |
| 2026-04-26 14:25 | 50.73427 | 15.11084 | 35281 ft | 511 kts | 67° |
| 2026-04-26 14:25 | 50.75932 | 15.21635 | 35282 ft | 512 kts | 66° |
| 2026-04-26 14:26 | 50.78428 | 15.32139 | 35278 ft | 513 kts | 66° |
| 2026-04-26 14:26 | 50.80747 | 15.42865 | 35276 ft | 515 kts | 70° |
| 2026-04-26 14:27 | 50.82769 | 15.53734 | 35274 ft | 515 kts | 71° |
| 2026-04-26 14:27 | 50.84745 | 15.64500 | 35056 ft | 505 kts | 71° |
| 2026-04-26 14:27 | 50.85727 | 15.69803 | 34570 ft | 501 kts | 70° |
| 2026-04-26 14:28 | 50.86717 | 15.75118 | 33646 ft | 506 kts | 70° |
| 2026-04-26 14:28 | 50.87723 | 15.80505 | 32539 ft | 513 kts | 70° |
| 2026-04-26 14:28 | 50.88738 | 15.85962 | 31479 ft | 519 kts | 70° |
| 2026-04-26 14:28 | 50.89757 | 15.91468 | 30488 ft | 523 kts | 70° |
| 2026-04-26 14:29 | 50.90778 | 15.97014 | 29682 ft | 520 kts | 69° |
| 2026-04-26 14:29 | 50.91766 | 16.02406 | 29147 ft | 512 kts | 69° |
| 2026-04-26 14:29 | 50.92701 | 16.07811 | 28618 ft | 506 kts | 73° |
| 2026-04-26 14:29 | 50.93001 | 16.13388 | 28005 ft | 508 kts | 90° |
| 2026-04-26 14:30 | 50.92704 | 16.18969 | 27377 ft | 505 kts | 92° |
| 2026-04-26 14:30 | 50.92348 | 16.24497 | 26763 ft | 501 kts | 92° |
| 2026-04-26 14:30 | 50.92037 | 16.29891 | 26183 ft | 496 kts | 91° |
| 2026-04-26 14:30 | 50.91777 | 16.35314 | 25635 ft | 491 kts | 90° |
| 2026-04-26 14:31 | 50.91551 | 16.40697 | 25107 ft | 486 kts | 89° |
| 2026-04-26 14:31 | 50.91330 | 16.46024 | 24589 ft | 481 kts | 89° |
| 2026-04-26 14:31 | 50.91144 | 16.51300 | 24074 ft | 475 kts | 86° |
| 2026-04-26 14:31 | 50.91174 | 16.56505 | 23503 ft | 469 kts | 82° |
| 2026-04-26 14:32 | 50.91325 | 16.61578 | 22919 ft | 464 kts | 81° |
| 2026-04-26 14:32 | 50.91507 | 16.66663 | 22342 ft | 460 kts | 81° |
| 2026-04-26 14:32 | 50.91674 | 16.71715 | 21780 ft | 456 kts | 81° |
| 2026-04-26 14:32 | 50.91813 | 16.76718 | 21230 ft | 452 kts | 82° |
| 2026-04-26 14:33 | 50.91930 | 16.81684 | 20709 ft | 449 kts | 82° |
| 2026-04-26 14:33 | 50.92034 | 16.86612 | 20184 ft | 445 kts | 82° |
| 2026-04-26 14:33 | 50.92131 | 16.91498 | 19678 ft | 442 kts | 82° |
| 2026-04-26 14:33 | 50.92226 | 16.96342 | 19192 ft | 438 kts | 82° |
| 2026-04-26 14:34 | 50.92316 | 17.01099 | 19096 ft | 424 kts | 82° |
| 2026-04-26 14:34 | 50.92401 | 17.05689 | 19013 ft | 410 kts | 81° |
| 2026-04-26 14:34 | 50.92477 | 17.10143 | 18926 ft | 396 kts | 83° |
| 2026-04-26 14:34 | 50.92146 | 17.14395 | 18806 ft | 396 kts | 103° |
| 2026-04-26 14:35 | 50.91002 | 17.18332 | 18744 ft | 387 kts | 114° |
| 2026-04-26 14:35 | 50.89763 | 17.22060 | 18654 ft | 375 kts | 112° |
| 2026-04-26 14:35 | 50.88613 | 17.25641 | 18256 ft | 358 kts | 111° |
| 2026-04-26 14:35 | 50.87628 | 17.29182 | 17520 ft | 344 kts | 96° |
| 2026-04-26 14:36 | 50.87458 | 17.32811 | 16679 ft | 321 kts | 71° |
| 2026-04-26 14:36 | 50.88107 | 17.36049 | 15912 ft | 299 kts | 51° |
| 2026-04-26 14:36 | 50.89224 | 17.38693 | 15204 ft | 286 kts | 41° |
| 2026-04-26 14:36 | 50.90592 | 17.40855 | 14606 ft | 266 kts | 25° |
| 2026-04-26 14:37 | 50.92198 | 17.41745 | 14161 ft | 231 kts | 351° |
| 2026-04-26 14:37 | 50.93584 | 17.40870 | 13602 ft | 217 kts | 315° |
| 2026-04-26 14:37 | 50.94364 | 17.38823 | 12948 ft | 217 kts | 304° |
| 2026-04-26 14:37 | 50.95295 | 17.37027 | 12236 ft | 209 kts | 321° |
| 2026-04-26 14:38 | 50.96160 | 17.35171 | 11528 ft | 216 kts | 298° |
| 2026-04-26 14:38 | 50.96593 | 17.33468 | 11015 ft | 216 kts | 299° |
| 2026-04-26 14:38 | 50.97184 | 17.31283 | 10423 ft | 216 kts | 297° |
| 2026-04-26 14:38 | 50.97926 | 17.29316 | 9737 ft | 210 kts | 324° |
| 2026-04-26 14:39 | 50.99233 | 17.28317 | 9317 ft | 209 kts | 345° |
| 2026-04-26 14:39 | 51.00675 | 17.28001 | 8968 ft | 209 kts | 359° |
| 2026-04-26 14:39 | 51.02118 | 17.28421 | 8571 ft | 214 kts | 18° |
| 2026-04-26 14:39 | 51.03398 | 17.29693 | 8177 ft | 222 kts | 39° |
| 2026-04-26 14:40 | 51.04293 | 17.31726 | 7792 ft | 230 kts | 63° |
| 2026-04-26 14:40 | 51.04657 | 17.34231 | 7444 ft | 236 kts | 81° |
| 2026-04-26 14:40 | 51.04468 | 17.36822 | 7050 ft | 240 kts | 107° |
| 2026-04-26 14:40 | 51.03785 | 17.39217 | 6721 ft | 241 kts | 114° |
| 2026-04-26 14:41 | 51.03025 | 17.41582 | 6455 ft | 239 kts | 114° |
| 2026-04-26 14:41 | 51.02280 | 17.43923 | 6181 ft | 237 kts | 114° |
| 2026-04-26 14:41 | 51.01496 | 17.46215 | 5899 ft | 234 kts | 127° |
| 2026-04-26 14:41 | 51.00257 | 17.47859 | 5612 ft | 233 kts | 153° |
| 2026-04-26 14:42 | 50.98750 | 17.48756 | 5484 ft | 233 kts | 169° |
| 2026-04-26 14:42 | 50.97138 | 17.48840 | 5406 ft | 234 kts | 195° |
| 2026-04-26 14:42 | 50.95683 | 17.47806 | 5333 ft | 228 kts | 224° |
| 2026-04-26 14:42 | 50.94674 | 17.45920 | 5309 ft | 224 kts | 248° |
| 2026-04-26 14:43 | 50.94192 | 17.43597 | 5269 ft | 219 kts | 266° |
| 2026-04-26 14:43 | 50.94316 | 17.41293 | 5272 ft | 205 kts | 292° |
| 2026-04-26 14:43 | 50.94820 | 17.39196 | 5209 ft | 204 kts | 295° |
| 2026-04-26 14:43 | 50.95389 | 17.37137 | 5113 ft | 203 kts | 297° |
| 2026-04-26 14:44 | 50.95979 | 17.35124 | 5073 ft | 203 kts | 298° |
| 2026-04-26 14:44 | 50.96592 | 17.33094 | 5014 ft | 204 kts | 298° |
| 2026-04-26 14:44 | 50.97212 | 17.31074 | 4985 ft | 203 kts | 299° |
| 2026-04-26 14:44 | 50.97833 | 17.29059 | 5009 ft | 204 kts | 299° |
| 2026-04-26 14:45 | 50.98453 | 17.27045 | 4992 ft | 202 kts | 299° |
| 2026-04-26 14:45 | 50.98867 | 17.25706 | 5014 ft | 205 kts | 298° |
| 2026-04-26 14:45 | 50.99707 | 17.22973 | 4985 ft | 211 kts | 299° |
| 2026-04-26 14:45 | 51.00367 | 17.20832 | 4760 ft | 221 kts | 298° |
| 2026-04-26 14:46 | 51.01046 | 17.18632 | 4461 ft | 222 kts | 298° |
| 2026-04-26 14:46 | 51.01722 | 17.16426 | 4206 ft | 220 kts | 298° |
| 2026-04-26 14:46 | 51.02391 | 17.14241 | 3866 ft | 215 kts | 298° |
| 2026-04-26 14:46 | 51.03029 | 17.12166 | 3550 ft | 202 kts | 299° |
| 2026-04-26 14:47 | 51.03616 | 17.10253 | 3290 ft | 188 kts | 299° |
| 2026-04-26 14:47 | 51.04174 | 17.08440 | 3051 ft | 173 kts | 299° |
| 2026-04-26 14:47 | 51.04679 | 17.06787 | 2847 ft | 158 kts | 299° |
| 2026-04-26 14:47 | 51.05154 | 17.05249 | 2603 ft | 152 kts | 298° |
| 2026-04-26 14:48 | 51.05606 | 17.03785 | 2433 ft | 142 kts | 300° |
| 2026-04-26 14:48 | 51.06031 | 17.02374 | 2205 ft | 145 kts | 298° |
| 2026-04-26 14:48 | 51.06481 | 17.00937 | 2006 ft | 145 kts | 299° |
| 2026-04-26 14:48 | 51.06931 | 16.99471 | 1803 ft | 147 kts | 300° |
| 2026-04-26 14:49 | 51.07383 | 16.97985 | 1588 ft | 145 kts | 300° |
| 2026-04-26 14:49 | 51.07816 | 16.96573 | 1395 ft | 140 kts | 300° |
| 2026-04-26 14:49 | 51.08249 | 16.95162 | 1210 ft | 143 kts | 299° |
| 2026-04-26 14:49 | 51.08684 | 16.93716 | 1013 ft | 147 kts | 300° |
| 2026-04-26 14:50 | 51.09136 | 16.92265 | 792 ft | 149 kts | 298° |
| 2026-04-26 14:50 | 51.09574 | 16.90834 | 595 ft | 139 kts | 299° |
| 2026-04-26 14:50 | 51.09994 | 16.89469 | 405 ft | 135 kts | 298° |
| 2026-04-26 14:50 | 51.10352 | 16.88308 | 407 ft | 88 kts | 296° |
| 2026-04-26 14:51 | 51.10531 | 16.87722 | 407 ft | 43 kts | 296° |
| 2026-04-26 14:51 | 51.10635 | 16.87386 | 407 ft | 24 kts | 296° |
| 2026-04-26 14:51 | 51.10700 | 16.87243 | 408 ft | 12 kts | 347° |
| 2026-04-26 14:51 | 51.10773 | 16.87288 | 408 ft | 11 kts | 26° |
| 2026-04-26 14:52 | 51.10841 | 16.87339 | 408 ft | 11 kts | 26° |
| 2026-04-26 14:52 | 51.10905 | 16.87389 | 408 ft | 10 kts | 26° |
| 2026-04-26 14:52 | 51.10944 | 16.87464 | 408 ft | 9 kts | 84° |
| 2026-04-26 14:52 | 51.10953 | 16.87531 | 408 ft | 5 kts | 25° |
| 2026-04-26 14:53 | 51.10974 | 16.87547 | 408 ft | 2 kts | 26° |
| 2026-04-26 14:53 | 51.10980 | 16.87552 | 408 ft | 1 kts | 26° |
| 2026-04-26 14:53 | 51.10984 | 16.87555 | 408 ft | 0 kts | 26° |